Terminal Aerodrome Forecast
Issued by NWS Jacksonville, FL

Home | Current Version | Previous Version | Text Only | Print | Product List | Glossary On
Versions: 1 2 3 4 5 6 7 8 9 10 11 12 13 14 15 16 17 18 19
000
FTUS42 KJAX 020500
TAFSSI
TAF
KSSI 020520Z 0206/0306 16004KT P6SM SCT020 BKN250
     FM021500 10009KT P6SM VCTS SCT020CB BKN150
     FM030100 12004KT P6SM SCT025 BKN200=

USA.gov is the U.S. government's official web portal to all federal, state and local government web resources and services.